• Join FlightAware (Why Join?)
  • Login
  • US Flag 
05:14AM EDT


 

Airport Tracker/Info


-or-


 

Live Flight TrackerFlight Track Log ✈ GGN7282 ✈ 21-Aug-2013 ✈ CYYZ - KALB

Flight Track Log - Related Links

Times and Time Zones

All times are in EDT time to prevent confusion due to time zone crossing. See the GGN7282 flight status page for this flight to view local times or setup timezone preferences in your user account.

Time Position Orientation Groundspeed Altitude Reporting Facility
EDT Latitude Longitude Course Direction KTS MPH feet Rate Location/Type
03:16PM 43.6333 -79.6167 154° Southeast 140 161 1,500  Level Toronto Center
03:17PM 43.5833 -79.5833 154° Southeast 190 219 2,600 1,080 Climbing Toronto Center
03:18PM 43.5500 -79.5333 133° Southeast 210 242 3,700 1,140 Climbing Toronto Center
03:19PM 43.5333 -79.4500 105° East 230 265 4,900 780 Climbing Toronto Center
03:20PM 43.5167 -79.3500 103° East 260 299 5,300 540 Climbing Toronto Center
03:21PM 43.5167 -79.2667 90° East 250 288 6,000 900 Climbing Toronto Center
03:22PM 43.5000 -79.1667 103° East 260 299 7,200 1,560 Climbing Toronto Center
03:24PM 43.4500 -79.0167 115° Southeast 210 242 10,800 1,320 Climbing Toronto Center
03:25PM 43.4333 -78.9167 103° East 230 265 11,300 720 Climbing Toronto Center
03:26PM 43.4000 -78.8500 125° Southeast 250 288 12,300 780 Climbing Toronto Center
03:27PM 43.3500 -78.7667 130° Southeast 250 288 12,900 300 Climbing Toronto Center
03:29PM 43.3117 -78.6944 126° Southeast 260 299 13,000  Climbing Cleveland Center
03:30PM 43.2706 -78.6044 122° Southeast 267 307 13,000  Level Cleveland Center
03:31PM 43.2275 -78.5233 126° Southeast 267 307 13,000  Level Cleveland Center
03:32PM 43.1925 -78.4333 118° Southeast 267 307 13,000  Level Cleveland Center
03:33PM 43.1906 -78.3308 91° East 252 290 13,000  Level Cleveland Center
03:34PM 43.1844 -78.2286 95° East 258 297 13,000  Level Cleveland Center
03:35PM 43.1761 -78.1264 96° East 263 303 13,000  Level Cleveland Center
03:36PM 43.1675 -78.0214 96° East 270 311 13,000  Level Cleveland Center
03:37PM 43.1589 -77.9164 96° East 276 318 13,000  Level Cleveland Center
03:38PM 43.1506 -77.8256 97° East 276 318 13,000  Level Cleveland Center
03:39PM 43.1439 -77.7208 95° East 276 318 13,000  Level Cleveland Center
03:40PM 43.1331 -77.6189 98° East 276 318 13,000  Level Cleveland Center
03:41PM 43.1242 -77.5167 97° East 276 318 13,000  Level Cleveland Center
03:42PM 43.1150 -77.4119 97° East 276 318 13,000  Level Cleveland Center
03:43PM 43.1058 -77.3072 97° East 276 318 13,000  Level Cleveland Center
03:45PM 43.0872 -77.1033 97° East 276 318 13,000  Level Cleveland Center
03:46PM 43.0800 -76.9986 95° East 276 318 13,000  Level Cleveland Center
03:47PM 43.0625 -76.8144 97° East 272 313 13,000  Level Boston Center
03:48PM 43.0539 -76.7114 96° East 277 319 13,000  Level Boston Center
03:49PM 43.0456 -76.6028 96° East 277 319 13,000  Level Boston Center
03:50PM 43.0347 -76.4997 98° East 277 319 13,000  Level Boston Center
03:51PM 43.0258 -76.3969 97° East 277 319 13,000  Level Boston Center
03:52PM 43.0147 -76.2911 98° East 277 319 13,000  Level Boston Center
03:53PM 43.0056 -76.1883 97° East 277 319 13,000  Level Boston Center
03:54PM 42.9944 -76.0853 98° East 277 319 13,000  Level Boston Center
03:55PM 42.9853 -75.9825 97° East 277 319 13,000  Level Boston Center
03:56PM 42.9717 -75.8739 100° East 277 319 13,000  Level Boston Center
03:57PM 42.9625 -75.7628 96° East 277 319 13,000  Level Boston Center
03:58PM 42.9511 -75.6572 98° East 277 319 13,000  Level Boston Center
03:59PM 42.9414 -75.5544 97° East 277 319 13,000  Level Boston Center
04:00PM 42.9297 -75.4489 99° East 277 319 13,000  Level Boston Center
04:01PM 42.9197 -75.3464 98° East 277 319 13,000  Level Boston Center
04:02PM 42.9078 -75.2436 99° East 277 319 13,000 -300 Level Boston Center
04:03PM 42.8958 -75.1356 99° East 277 319 12,500 -780 Descending Boston Center
04:04PM 42.8858 -75.0272 97° East 282 325 11,500 -780 Descending Boston Center
04:05PM 42.8736 -74.9164 99° East 287 330 11,000 -240 Descending Boston Center
04:06PM 42.8611 -74.8139 99° East 282 325 11,100 60 Climbing Boston Center
04:07PM 42.8561 -74.7628 98° East 271 312 11,100  Level Boston Center
04:08PM 42.8417 -74.6461 100° East 270 311 11,100  Level Boston Center
04:09PM 42.8333 -74.5439 96° East 271 312 11,100 -300 Level Boston Center
04:10PM 42.8267 -74.4417 95° East 277 319 10,600 -840 Descending Boston Center
04:11PM 42.8264 -74.3311 90° East 295 339 9,400 -900 Descending Boston Center
04:12PM 42.8303 -74.2236 87° East 290 334 8,800 -600 Descending Boston Center
04:13PM 42.8322 -74.1019 89° East 279 321 8,200 -720 Descending Boston Center
04:14PM 42.8361 -73.9747 88° East 284 327 7,300 -780 Descending Boston Center
04:15PM 42.8372 -73.8956 89° East 284 327 6,800 -780 Descending Boston Center
04:16PM 42.8406 -73.7908 87° East 275 316 6,000 -900 Descending Boston Center
04:17PM 42.8436 -73.6917 88° East 256 295 5,000 -900 Descending Boston Center
04:18PM 42.8406 -73.6011 93° East 246 283 4,200 -780 Descending Boston Center
04:19PM 42.7889 -73.5406 139° Southeast 219 252 3,400 -660 Descending Boston Center
04:20PM 42.7592 -73.5939 233° Southwest 202 232 2,900 -840 Descending Boston Center
04:21PM 42.7522 -73.6728 263° West 206 237 1,900 -960 Descending Boston Center
04:22PM 42.7494 -73.7436 267° West 205 236 1,100 -840 Descending Boston Center